Time;durP1;ratioP1;P1;durP2;ratioP2;P2;SDS_P1;SDS_P2;PMS_P1;PMS_P2;Temp;Humidity;BMP_temperature;BMP_pressure;BME280_temperature;BME280_humidity;BME280_pressure;Samples;Min_cycle;Max_cycle;Signal;HPM_P1;HPM_P2
2021/11/10 00:00:57;;;;;;;43.30;28.70;;;;;;;0.66;88.18;102183.27;85969;1313;94420;-75
2021/11/10 00:03:06;;;;;;;41.20;27.10;;;;;;;0.67;88.15;102175.00;85956;1313;79896;-70
2021/11/10 00:05:20;;;;;;;41.70;27.40;;;;;;;0.68;88.15;102171.96;85983;1314;81651;-71
2021/11/10 00:07:31;;;;;;;39.90;26.30;;;;;;;0.68;88.10;102170.00;86010;1313;96476;-75
2021/11/10 00:09:43;;;;;;;41.30;27.40;;;;;;;0.67;88.10;102168.10;85969;1319;88776;-74
2021/11/10 00:11:54;;;;;;;40.40;25.10;;;;;;;0.69;88.07;102168.88;85973;1316;95700;-76
2021/11/10 00:14:16;;;;;;;38.70;26.60;;;;;;;0.66;88.03;102168.69;86003;1313;79625;-76
2021/11/10 00:16:25;;;;;;;41.30;26.60;;;;;;;0.64;88.04;102164.71;85952;1313;82728;-76
2021/11/10 00:18:35;;;;;;;41.40;27.50;;;;;;;0.62;87.97;102161.98;85904;1316;98300;-70
2021/11/10 00:20:50;;;;;;;41.30;26.10;;;;;;;0.61;88.04;102159.02;85945;1320;88022;-70
2021/11/10 00:23:01;;;;;;;42.20;28.10;;;;;;;0.63;88.09;102154.00;85792;1316;96731;-71
2021/11/10 00:25:13;;;;;;;40.00;26.50;;;;;;;0.62;88.00;102151.37;85827;1316;80506;-71
2021/11/10 00:27:23;;;;;;;42.40;26.90;;;;;;;0.61;87.99;102152.30;85987;1316;82098;-70
2021/11/10 00:29:32;;;;;;;41.30;27.50;;;;;;;0.58;88.12;102155.98;85941;1320;99171;-70
2021/11/10 00:31:41;;;;;;;39.70;27.20;;;;;;;0.56;88.18;102153.45;85846;1317;88338;-70
2021/11/10 00:33:51;;;;;;;42.40;28.40;;;;;;;0.54;88.16;102152.46;85895;1313;93800;-70
2021/11/10 00:36:00;;;;;;;41.00;27.30;;;;;;;0.54;88.23;102148.95;85920;1313;80523;-70
2021/11/10 00:38:16;;;;;;;40.70;27.30;;;;;;;0.54;88.25;102146.79;85922;1313;81825;-75
2021/11/10 00:40:27;;;;;;;41.00;28.10;;;;;;;0.53;88.22;102146.69;85863;1313;98523;-74
2021/11/10 00:42:36;;;;;;;41.40;27.20;;;;;;;0.53;88.28;102144.71;85959;1316;87383;-70
2021/11/10 00:44:45;;;;;;;46.80;29.30;;;;;;;0.56;88.28;102142.27;85929;1319;94431;-69
2021/11/10 00:46:54;;;;;;;45.40;28.00;;;;;;;0.58;88.32;102143.20;85939;1320;80543;-70
2021/11/10 00:49:07;;;;;;;38.60;26.30;;;;;;;0.57;88.40;102137.81;85989;1313;82119;-75
2021/11/10 00:51:16;;;;;;;42.50;27.90;;;;;;;0.56;88.36;102136.25;85945;1313;98267;-75
2021/11/10 00:53:27;;;;;;;43.90;28.20;;;;;;;0.58;88.41;102131.35;85955;1311;88168;-74
2021/11/10 00:55:37;;;;;;;45.00;29.20;;;;;;;0.62;88.44;102129.94;85931;1319;91974;-75
2021/11/10 00:57:49;;;;;;;42.70;27.40;;;;;;;0.63;88.61;102130.41;85831;1318;81654;-74
2021/11/10 00:59:58;;;;;;;42.70;29.00;;;;;;;0.64;88.59;102127.48;85978;1313;83190;-74
2021/11/10 01:02:09;;;;;;;40.00;25.90;;;;;;;0.66;88.49;102127.02;86017;1317;96758;-70
2021/11/10 01:04:18;;;;;;;42.60;27.30;;;;;;;0.64;88.54;102124.30;85953;1313;87224;-70
2021/11/10 01:06:31;;;;;;;43.20;28.30;;;;;;;0.63;88.54;102119.61;86002;1317;95164;-70
2021/11/10 01:08:41;;;;;;;41.40;27.20;;;;;;;0.64;88.58;102113.84;86015;1319;77915;-72
2021/11/10 01:10:54;;;;;;;41.10;27.50;;;;;;;0.63;88.62;102113.34;86001;1319;81077;-71
2021/11/10 01:13:06;;;;;;;45.20;29.70;;;;;;;0.66;88.64;102113.04;86004;1317;97419;-70
2021/11/10 01:15:17;;;;;;;45.80;28.80;;;;;;;0.66;88.80;102106.48;85987;1317;87683;-70
2021/11/10 01:17:26;;;;;;;45.80;28.30;;;;;;;0.65;88.77;102099.45;85973;1317;94065;-70
2021/11/10 01:19:36;;;;;;;44.70;28.70;;;;;;;0.66;88.80;102099.92;85996;1318;80451;-70
2021/11/10 01:21:45;;;;;;;46.60;28.80;;;;;;;0.68;88.75;102099.30;86003;1317;83005;-71
2021/11/10 01:23:57;;;;;;;43.70;27.40;;;;;;;0.67;88.66;102097.37;85935;1318;97328;-76
2021/11/10 01:26:06;;;;;;;46.80;29.60;;;;;;;0.64;88.80;102100.19;85945;1313;87972;-76
2021/11/10 01:28:15;;;;;;;44.90;28.40;;;;;;;0.67;88.87;102098.42;85997;1319;93584;-70
2021/11/10 01:30:25;;;;;;;42.80;28.30;;;;;;;0.68;88.79;102098.77;86014;1314;78180;-68
2021/11/10 01:32:34;;;;;;;42.70;28.40;;;;;;;0.68;88.87;102099.83;85974;1313;82151;-70
2021/11/10 01:34:47;;;;;;;48.00;29.80;;;;;;;0.69;88.79;102100.63;85967;1317;97754;-70
2021/11/10 01:36:57;;;;;;;46.50;28.60;;;;;;;0.70;88.79;102104.30;85955;1317;87215;-70
2021/11/10 01:39:11;;;;;;;43.80;28.30;;;;;;;0.73;89.06;102102.70;85857;1313;95252;-70
2021/11/10 01:41:23;;;;;;;46.10;27.60;;;;;;;0.76;89.02;102099.89;85962;1313;79008;-72
2021/11/10 01:43:32;;;;;;;47.90;28.50;;;;;;;0.80;88.87;102100.00;85966;1317;83612;-71
2021/11/10 01:45:46;;;;;;;42.50;27.50;;;;;;;0.82;88.93;102098.29;85850;1316;99424;-68
2021/11/10 01:47:54;;;;;;;;;;;;;;;0.84;88.94;102100.30;85968;1317;88489;-75
2021/11/10 02:22:13;;;;;;;39.50;23.50;;;;;;;0.95;88.84;102104.84;85226;1320;99074;-68
2021/11/10 02:24:25;;;;;;;43.50;25.70;;;;;;;0.92;89.04;102104.28;85969;1316;88529;-70
2021/11/10 02:26:35;;;;;;;45.30;26.20;;;;;;;0.93;88.97;102097.84;86014;1319;95609;-67
2021/11/10 02:28:46;;;;;;;45.20;27.20;;;;;;;0.94;89.19;102093.55;85965;1318;80715;-67
2021/11/10 02:31:02;;;;;;;39.80;26.40;;;;;;;0.93;89.06;102092.02;86022;1314;81798;-67
2021/11/10 02:33:29;;;;;;;41.50;27.10;;;;;;;0.94;89.00;102091.95;86023;1317;97465;-67
2021/11/10 02:35:38;;;;;;;40.50;26.00;;;;;;;0.94;88.95;102086.23;86009;1316;89541;-68
2021/11/10 02:37:55;;;;;;;39.90;27.10;;;;;;;0.93;88.81;102086.13;86014;1313;96134;-75
2021/11/10 02:40:07;;;;;;;43.90;27.40;;;;;;;0.93;88.70;102088.27;85970;1317;80610;-77
2021/11/10 02:42:23;;;;;;;44.70;27.70;;;;;;;0.90;88.94;102087.39;85779;1316;82364;-75
2021/11/10 02:44:34;;;;;;;43.50;28.10;;;;;;;0.88;88.75;102084.86;85890;1312;96135;-76
2021/11/10 02:46:44;;;;;;;41.90;27.40;;;;;;;0.87;88.69;102085.80;85948;1317;89204;-67
2021/11/10 02:48:54;;;;;;;43.30;27.60;;;;;;;0.83;88.84;102084.96;85940;1312;95674;-74
2021/11/10 02:51:11;;;;;;;41.60;27.20;;;;;;;0.82;88.83;102086.73;85982;1318;78728;-79
2021/11/10 02:53:32;;;;;;;45.40;27.50;;;;;;;0.82;88.70;102083.96;85843;1314;80245;-69
2021/11/10 02:55:41;;;;;;;38.50;23.70;;;;;;;0.84;88.78;102084.37;85972;1313;96720;-68
2021/11/10 02:57:52;;;;;;;43.00;27.60;;;;;;;0.85;88.85;102088.05;85903;1320;89244;-75
2021/11/10 03:00:05;;;;;;;44.40;27.30;;;;;;;0.86;88.84;102092.61;86016;1317;96382;-76
2021/11/10 03:02:24;;;;;;;43.60;28.90;;;;;;;0.83;88.76;102091.14;85875;1313;80524;-75
2021/11/10 03:04:42;;;;;;;44.80;27.80;;;;;;;0.84;88.84;102094.82;86005;1317;83125;-76
2021/11/10 03:06:54;;;;;;;47.80;28.50;;;;;;;0.84;88.78;102097.64;85843;1320;98377;-76
2021/11/10 03:09:12;;;;;;;43.50;27.80;;;;;;;0.82;88.73;102092.98;85996;1312;88291;-67
2021/11/10 03:11:24;;;;;;;41.10;26.60;;;;;;;0.79;88.61;102089.09;86021;1318;94267;-67
2021/11/10 03:13:43;;;;;;;43.60;29.50;;;;;;;0.77;88.79;102084.06;86048;1319;79558;-68
2021/11/10 03:15:53;;;;;;;43.70;27.10;;;;;;;0.78;88.73;102078.84;86023;1317;82977;-69
2021/11/10 03:18:02;;;;;;;40.50;27.50;;;;;;;0.78;88.78;102077.27;86008;1318;98749;-67
2021/11/10 03:20:15;;;;;;;42.90;27.60;;;;;;;0.78;88.94;102070.66;85996;1317;89685;-67
2021/11/10 03:22:25;;;;;;;45.00;27.90;;;;;;;0.77;88.71;102069.52;85988;1313;94726;-75
2021/11/10 03:24:39;;;;;;;41.80;27.20;;;;;;;0.74;88.73;102069.67;85960;1316;79270;-76
2021/11/10 03:27:04;;;;;;;45.90;27.20;;;;;;;0.73;88.75;102063.51;85981;1313;83049;-76
2021/11/10 03:29:15;;;;;;;43.80;28.30;;;;;;;0.70;88.81;102066.73;85908;1318;98476;-75
2021/11/10 03:31:26;;;;;;;42.30;28.90;;;;;;;0.70;88.81;102066.54;85870;1316;87415;-75
2021/11/10 03:33:36;;;;;;;41.10;26.00;;;;;;;0.71;88.68;102059.06;85953;1314;92791;-75
2021/11/10 03:35:55;;;;;;;42.80;28.20;;;;;;;0.69;88.72;102057.56;85993;1316;81864;-76
2021/11/10 03:38:11;;;;;;;46.70;29.90;;;;;;;0.64;88.78;102056.76;85917;1317;81517;-69
2021/11/10 03:40:21;;;;;;;42.00;27.00;;;;;;;0.62;88.71;102058.33;85996;1317;97554;-66
2021/11/10 03:42:33;;;;;;;42.70;28.00;;;;;;;0.64;88.77;102063.51;85983;1317;87306;-65
2021/11/10 03:45:02;;;;;;;41.20;25.80;;;;;;;0.63;88.78;102061.42;85986;1313;94737;-65
2021/11/10 03:47:17;;;;;;;48.00;28.70;;;;;;;0.63;88.79;102055.60;85995;1317;81735;-65
2021/11/10 03:49:36;;;;;;;43.10;27.10;;;;;;;0.65;88.80;102055.48;86037;1317;82033;-65
2021/11/10 03:51:46;;;;;;;43.40;28.10;;;;;;;0.68;88.77;102058.16;85876;1320;98602;-66
2021/11/10 03:53:58;;;;;;;42.00;27.90;;;;;;;0.70;88.90;102059.44;85941;1316;88963;-69
2021/11/10 03:56:10;;;;;;;41.90;27.40;;;;;;;0.69;88.94;102057.68;85900;1313;96115;-69
2021/11/10 03:58:22;;;;;;;47.60;28.70;;;;;;;0.71;88.78;102058.33;85815;1318;81808;-67
2021/11/10 04:00:32;;;;;;;41.80;25.30;;;;;;;0.69;88.72;102062.14;85964;1317;82700;-67
2021/11/10 04:02:45;;;;;;;39.00;25.30;;;;;;;0.67;88.79;102063.31;85951;1320;98319;-69
2021/11/10 04:04:55;;;;;;;42.30;27.20;;;;;;;0.67;88.68;102063.89;85863;1318;89320;-68
2021/11/10 04:07:08;;;;;;;42.70;26.30;;;;;;;0.68;88.87;102062.75;85903;1313;95554;-67
2021/11/10 04:09:18;;;;;;;45.50;26.00;;;;;;;0.72;88.88;102066.61;85931;1313;78708;-68
2021/11/10 04:11:31;;;;;;;43.60;27.70;;;;;;;0.71;88.82;102058.87;85853;1320;83526;-68
2021/11/10 04:13:41;;;;;;;42.40;27.20;;;;;;;0.71;88.85;102054.95;85843;1317;97231;-67
2021/11/10 04:15:51;;;;;;;45.00;28.10;;;;;;;0.71;88.92;102058.48;86000;1313;87949;-66
2021/11/10 04:18:00;;;;;;;45.30;28.90;;;;;;;0.72;88.93;102061.27;85996;1317;95223;-67
2021/11/10 04:20:12;;;;;;;43.30;27.80;;;;;;;0.71;88.90;102056.03;86010;1317;79631;-67
2021/11/10 04:22:23;;;;;;;45.90;28.00;;;;;;;0.70;89.01;102054.29;86034;1316;81794;-69
2021/11/10 04:24:34;;;;;;;44.10;27.90;;;;;;;0.70;88.94;102048.08;85825;1321;99146;-69
2021/11/10 04:26:46;;;;;;;44.50;27.90;;;;;;;0.69;89.00;102039.29;85928;1317;88666;-70
2021/11/10 04:28:58;;;;;;;48.00;28.50;;;;;;;0.70;89.11;102034.64;86024;1316;92201;-67
2021/11/10 04:31:07;;;;;;;45.40;28.30;;;;;;;0.70;89.06;102034.80;86007;1314;78240;-67
2021/11/10 04:33:16;;;;;;;47.20;29.30;;;;;;;0.71;89.08;102030.11;85989;1317;80507;-68
2021/11/10 04:35:26;;;;;;;47.00;30.00;;;;;;;0.74;89.08;102029.94;86005;1317;99119;-68
2021/11/10 04:37:41;;;;;;;38.50;23.70;;;;;;;0.75;88.98;102028.66;86010;1317;87512;-68
2021/11/10 04:39:51;;;;;;;44.30;28.70;;;;;;;0.74;89.08;102025.35;85936;1316;94774;-71
2021/11/10 04:42:01;;;;;;;44.80;29.20;;;;;;;0.73;89.09;102028.95;85837;1317;80898;-71
2021/11/10 04:44:16;;;;;;;44.20;27.20;;;;;;;0.73;89.01;102023.10;85980;1319;82390;-66
2021/11/10 04:46:29;;;;;;;43.80;28.50;;;;;;;0.72;89.05;102017.15;85713;1318;99451;-68
2021/11/10 04:48:41;;;;;;;44.90;27.20;;;;;;;0.73;89.12;102014.98;85970;1317;88897;-66
2021/11/10 04:50:51;;;;;;;46.20;28.60;;;;;;;0.74;89.10;102012.77;85975;1317;94936;-65
2021/11/10 04:53:05;;;;;;;47.40;27.90;;;;;;;0.75;89.15;102010.23;85971;1317;79734;-64
2021/11/10 04:55:18;;;;;;;45.40;28.70;;;;;;;0.75;89.02;102008.80;85989;1313;82068;-65
2021/11/10 04:57:27;;;;;;;44.00;27.60;;;;;;;0.77;89.31;102008.34;85993;1319;99758;-71
2021/11/10 04:59:37;;;;;;;47.70;29.20;;;;;;;0.79;89.20;102010.32;85987;1317;89388;-70
2021/11/10 05:02:23;;;;;;;46.90;29.00;;;;;;;0.80;89.13;102006.92;85961;1317;95579;-70
2021/11/10 05:04:20;;;;;;;42.90;29.70;;;;;;;0.80;89.11;102005.30;85892;1316;81357;-66
2021/11/10 05:06:32;;;;;;;41.20;26.40;;;;;;;0.83;89.19;102002.88;85996;1317;83721;-68
2021/11/10 05:08:45;;;;;;;42.30;26.30;;;;;;;0.82;89.16;101997.76;85830;1320;98574;-70
2021/11/10 05:10:55;;;;;;;46.30;28.20;;;;;;;0.81;89.28;101994.95;85909;1316;88239;-71
2021/11/10 05:13:05;;;;;;;39.90;26.60;;;;;;;0.84;89.30;101992.16;85906;1320;96361;-71
2021/11/10 05:15:15;;;;;;;40.20;24.40;;;;;;;0.84;89.24;101991.98;85888;1313;81192;-69
2021/11/10 05:17:29;;;;;;;45.50;29.00;;;;;;;0.82;89.37;101986.39;85984;1318;82228;-69
2021/11/10 05:19:41;;;;;;;41.00;26.30;;;;;;;0.85;89.45;101985.33;85951;1318;99943;-70
2021/11/10 05:21:54;;;;;;;42.50;26.40;;;;;;;0.86;89.43;101980.65;85877;1313;87769;-70
2021/11/10 05:24:04;;;;;;;44.70;26.80;;;;;;;0.88;89.56;101980.69;85961;1317;95730;-70
2021/11/10 05:26:19;;;;;;;39.70;26.50;;;;;;;0.89;89.54;101977.51;85915;1314;80918;-71
2021/11/10 05:28:31;;;;;;;42.00;25.70;;;;;;;0.90;89.37;101976.02;85912;1317;83644;-65
2021/11/10 05:30:40;;;;;;;44.90;27.00;;;;;;;0.89;89.38;101975.16;85921;1316;99711;-65
2021/11/10 05:32:50;;;;;;;40.80;26.10;;;;;;;0.87;89.32;101967.48;85939;1319;89735;-65
2021/11/10 05:35:00;;;;;;;40.20;25.90;;;;;;;0.87;89.30;101968.19;85760;1316;92614;-66
2021/11/10 05:37:14;;;;;;;41.10;26.50;;;;;;;0.88;89.35;101963.00;85756;1316;78996;-70
2021/11/10 05:39:27;;;;;;;40.90;26.90;;;;;;;0.90;89.27;101958.30;85987;1317;79705;-72
2021/11/10 05:41:40;;;;;;;45.60;27.00;;;;;;;0.91;89.42;101960.54;85766;1316;98776;-71
2021/11/10 05:43:58;;;;;;;41.60;26.30;;;;;;;0.92;89.36;101957.24;85890;1314;88545;-72
2021/11/10 05:46:08;;;;;;;40.80;26.80;;;;;;;0.90;89.41;101958.45;85896;1320;96219;-74
2021/11/10 05:48:18;;;;;;;43.10;27.20;;;;;;;0.89;89.42;101957.59;85930;1314;80623;-66
2021/11/10 05:50:28;;;;;;;47.60;28.20;;;;;;;0.94;89.52;101958.57;86009;1318;82127;-67
2021/11/10 05:52:44;;;;;;;42.10;26.50;;;;;;;0.97;89.50;101961.76;85772;1316;96869;-75
2021/11/10 05:54:53;;;;;;;;;;;;;;;0.98;89.65;101970.55;85831;1314;89085;-77
2021/11/10 05:57:04;;;;;;;43.30;28.00;;;;;;;1.00;89.62;101966.90;85909;1319;95215;-76
2021/11/10 05:59:22;;;;;;;59.70;35.90;;;;;;;1.02;89.48;101970.33;85982;1316;82000;-77
2021/11/10 06:01:42;;;;;;;134.80;77.70;;;;;;;1.05;89.55;101970.84;86016;1318;82047;-75
2021/11/10 06:04:02;;;;;;;45.80;29.70;;;;;;;1.08;89.64;101975.30;85999;1317;97546;-77
2021/11/10 06:06:19;;;;;;;40.70;28.40;;;;;;;1.10;89.63;101976.05;85915;1319;88849;-76
2021/11/10 06:08:36;;;;;;;41.40;26.20;;;;;;;1.11;89.58;101977.05;85958;1315;94758;-76
2021/11/10 06:10:48;;;;;;;43.70;27.10;;;;;;;1.14;89.43;101975.63;85789;1320;82176;-75
2021/11/10 06:12:59;;;;;;;33.20;21.50;;;;;;;1.17;89.46;101980.57;85724;1316;83557;-78
2021/11/10 06:15:12;;;;;;;39.60;25.60;;;;;;;1.16;89.63;101984.92;85882;1320;96546;-76
2021/11/10 06:17:22;;;;;;;38.10;24.20;;;;;;;1.20;89.53;101987.33;85909;1314;87310;-68
2021/11/10 06:19:32;;;;;;;44.70;26.50;;;;;;;1.25;89.56;101984.40;85941;1313;94489;-70
2021/11/10 06:21:42;;;;;;;41.20;26.00;;;;;;;1.27;89.50;101984.23;85740;1319;83159;-67
2021/11/10 06:23:53;;;;;;;43.00;27.60;;;;;;;1.32;89.38;101983.98;85995;1319;80886;-76
2021/11/10 06:26:04;;;;;;;41.20;26.30;;;;;;;1.36;89.48;101982.82;85978;1316;98249;-77
2021/11/10 06:28:14;;;;;;;42.30;25.70;;;;;;;1.38;89.53;101986.79;85929;1313;90099;-75
2021/11/10 06:30:24;;;;;;;42.00;24.90;;;;;;;1.41;89.43;101984.48;85968;1317;95214;-76
2021/11/10 06:32:38;;;;;;;38.10;25.30;;;;;;;1.46;89.45;101986.15;85888;1315;79044;-68
2021/11/10 06:34:49;;;;;;;46.70;26.40;;;;;;;1.70;89.64;101984.48;85936;1320;83929;-68
2021/11/10 06:37:02;;;;;;;39.30;25.50;;;;;;;2.21;89.87;101983.41;85851;1317;98668;-69
2021/11/10 06:39:18;;;;;;;36.40;25.00;;;;;;;2.91;89.86;101977.19;85965;1317;87126;-75
2021/11/10 06:41:40;;;;;;;43.00;25.80;;;;;;;3.97;89.52;101974.27;85936;1316;95549;-75
2021/11/10 06:43:54;;;;;;;36.30;24.20;;;;;;;5.01;89.05;101966.56;86000;1317;78984;-75
2021/11/10 06:46:04;;;;;;;33.40;23.90;;;;;;;5.98;88.35;101972.96;85975;1317;81518;-75
2021/11/10 06:48:13;;;;;;;34.00;23.30;;;;;;;6.64;87.49;101964.87;86025;1319;98678;-70
2021/11/10 06:50:24;;;;;;;33.50;24.40;;;;;;;7.16;86.90;101963.04;85975;1319;88628;-67
2021/11/10 06:52:36;;;;;;;37.00;24.50;;;;;;;7.47;85.35;101968.42;85976;1319;95334;-75
2021/11/10 06:55:13;;;;;;;30.30;22.30;;;;;;;7.78;85.57;101969.86;85996;1313;77686;-74
2021/11/10 06:57:26;;;;;;;32.60;23.70;;;;;;;8.02;84.96;101974.55;86024;1319;82804;-75
2021/11/10 06:59:35;;;;;;;29.90;23.10;;;;;;;8.28;83.91;101977.10;86000;1314;96037;-76
2021/11/10 07:01:44;;;;;;;29.90;23.90;;;;;;;8.49;83.33;101972.14;86022;1313;89151;-76
2021/11/10 07:04:00;;;;;;;31.10;23.20;;;;;;;8.89;81.29;101968.06;85865;1314;94523;-71
2021/11/10 07:06:15;;;;;;;27.70;21.90;;;;;;;9.38;81.84;101966.77;85833;1313;80456;-71
2021/11/10 07:08:24;;;;;;;29.70;21.30;;;;;;;10.11;80.68;101964.27;85999;1317;82554;-71
2021/11/10 07:10:33;;;;;;;29.20;19.60;;;;;;;10.62;78.55;101961.24;86018;1316;98804;-71
2021/11/10 07:12:49;;;;;;;25.10;20.50;;;;;;;10.97;77.83;101950.59;85826;1320;89504;-70
2021/11/10 07:14:59;;;;;;;27.40;21.00;;;;;;;11.10;76.42;101949.11;85954;1314;95396;-70
2021/11/10 07:17:08;;;;;;;25.30;20.50;;;;;;;11.39;76.26;101951.55;85950;1313;77860;-74
2021/11/10 07:19:24;;;;;;;26.30;20.10;;;;;;;11.95;75.99;101953.30;85977;1316;83100;-76
2021/11/10 07:21:38;;;;;;;26.40;20.30;;;;;;;12.33;74.84;101954.69;85983;1317;98216;-74
2021/11/10 07:23:48;;;;;;;24.90;20.20;;;;;;;12.70;73.77;101951.70;85982;1312;89432;-71
2021/11/10 07:26:02;;;;;;;23.30;19.80;;;;;;;13.08;71.78;101950.83;85980;1319;94760;-70
2021/11/10 07:28:12;;;;;;;23.30;18.90;;;;;;;12.90;70.25;101949.69;85974;1312;80688;-75
2021/11/10 07:30:23;;;;;;;26.50;19.60;;;;;;;13.23;70.54;101952.02;85839;1313;82958;-75
2021/11/10 07:32:47;;;;;;;26.20;19.60;;;;;;;13.50;69.59;101950.27;85989;1318;95842;-72
2021/11/10 07:35:13;;;;;;;28.10;19.90;;;;;;;13.91;68.62;101946.40;85999;1313;86567;-75
2021/11/10 07:37:33;;;;;;;21.90;19.30;;;;;;;13.80;67.53;101946.05;86009;1310;94127;-71
2021/11/10 07:39:46;;;;;;;23.10;18.90;;;;;;;13.66;67.24;101943.83;85995;1316;79480;-70
2021/11/10 07:42:05;;;;;;;21.60;19.00;;;;;;;12.43;66.17;101945.12;85765;1317;81497;-71
2021/11/10 07:44:17;;;;;;;23.20;19.20;;;;;;;11.71;66.83;101943.91;85980;1313;97204;-74
2021/11/10 07:46:32;;;;;;;20.70;18.50;;;;;;;11.92;67.10;101948.54;85876;1320;88276;-74
2021/11/10 07:48:47;;;;;;;20.00;17.80;;;;;;;12.17;65.18;101948.65;85872;1313;97609;-68
2021/11/10 07:50:56;;;;;;;23.10;19.00;;;;;;;12.63;65.30;101944.34;85804;1318;77103;-70
2021/11/10 07:53:06;;;;;;;20.10;18.00;;;;;;;13.05;64.76;101944.64;85965;1313;80950;-69
2021/11/10 07:55:16;;;;;;;22.20;18.50;;;;;;;13.34;64.17;101947.26;85810;1314;99753;-70
2021/11/10 07:57:26;;;;;;;23.10;18.00;;;;;;;13.50;63.47;101945.21;85853;1313;88764;-69
2021/11/10 07:59:40;;;;;;;20.40;18.20;;;;;;;13.55;62.15;101942.33;85737;1317;96139;-71
2021/11/10 08:01:52;;;;;;;20.70;17.00;;;;;;;13.47;62.36;101939.91;85912;1314;77693;-69
2021/11/10 08:04:03;;;;;;;20.50;17.40;;;;;;;13.88;63.22;101943.31;85950;1316;82880;-70
2021/11/10 08:06:14;;;;;;;19.70;16.70;;;;;;;14.52;62.77;101947.17;85952;1313;99663;-70
2021/11/10 08:08:23;;;;;;;21.60;17.60;;;;;;;14.10;61.94;101949.79;85837;1316;86690;-69
2021/11/10 08:10:33;;;;;;;21.00;18.20;;;;;;;13.09;62.48;101948.97;85923;1314;94773;-69
2021/11/10 08:12:44;;;;;;;22.70;17.50;;;;;;;11.79;62.93;101952.46;85933;1313;78731;-74
2021/11/10 08:14:55;;;;;;;20.50;18.30;;;;;;;10.79;63.72;101950.86;85788;1314;83437;-76
2021/11/10 08:17:04;;;;;;;23.90;19.90;;;;;;;10.01;64.37;101955.37;85841;1317;97894;-69
2021/11/10 08:19:13;;;;;;;22.10;17.90;;;;;;;9.38;65.19;101954.14;85994;1317;88587;-69
2021/11/10 08:21:23;;;;;;;22.60;18.70;;;;;;;8.86;66.05;101953.46;85970;1313;93523;-71
2021/11/10 08:23:33;;;;;;;22.50;18.80;;;;;;;8.83;66.87;101951.81;85971;1313;81125;-74
2021/11/10 08:25:42;;;;;;;25.80;19.90;;;;;;;9.42;66.59;101946.04;85996;1313;82731;-76
2021/11/10 08:27:54;;;;;;;24.20;19.50;;;;;;;10.12;65.86;101950.83;85988;1313;98832;-70
2021/11/10 08:30:06;;;;;;;24.80;19.30;;;;;;;10.90;64.38;101945.46;86008;1316;88893;-69
2021/11/10 08:32:16;;;;;;;24.00;19.60;;;;;;;11.69;65.28;101945.76;86036;1311;94091;-70
2021/11/10 08:34:25;;;;;;;21.80;19.50;;;;;;;12.42;63.99;101944.70;86018;1314;78856;-70
2021/11/10 08:36:36;;;;;;;23.90;19.90;;;;;;;12.39;63.50;101938.31;85998;1317;82118;-70
2021/11/10 08:38:45;;;;;;;24.90;21.20;;;;;;;12.12;62.68;101932.20;86002;1313;98637;-74
2021/11/10 08:40:58;;;;;;;24.00;19.90;;;;;;;11.47;62.65;101929.98;85903;1313;88213;-69
2021/11/10 08:43:40;;;;;;;25.10;19.80;;;;;;;11.26;63.24;101932.88;85992;1313;94415;-73
2021/11/10 08:49:26;;;;;;;24.70;19.70;;;;;;;12.68;63.87;101927.75;86007;1317;80691;-74
2021/11/10 08:52:10;;;;;;;21.60;18.60;;;;;;;13.51;63.24;101927.34;86091;1311;98150;-68
2021/11/10 08:58:08;;;;;;;23.80;18.70;;;;;;;14.99;61.68;101912.41;85905;1314;94707;-70
2021/11/10 09:00:24;;;;;;;23.60;18.60;;;;;;;15.26;61.39;101910.94;85861;1314;79627;-68
2021/11/10 09:02:33;;;;;;;21.50;18.10;;;;;;;15.52;60.55;101907.15;86010;1316;83614;-73
2021/11/10 09:04:42;;;;;;;21.20;17.50;;;;;;;16.00;60.51;101904.67;85974;1316;98068;-74
2021/11/10 09:06:52;;;;;;;22.80;18.10;;;;;;;16.06;59.28;101900.11;86008;1311;88970;-72
2021/11/10 09:09:10;;;;;;;19.50;16.90;;;;;;;16.30;59.53;101892.89;85937;1314;95850;-71
2021/11/10 09:11:25;;;;;;;21.30;17.20;;;;;;;16.33;56.71;101889.27;86014;1317;78850;-78
2021/11/10 09:13:48;;;;;;;18.60;16.50;;;;;;;16.04;57.44;101888.17;86039;1312;80448;-80
2021/11/10 09:15:57;;;;;;;20.20;17.10;;;;;;;16.30;57.78;101889.36;86021;1304;97321;-80
2021/11/10 09:18:09;;;;;;;23.20;17.60;;;;;;;16.29;57.71;101886.52;86024;1315;88602;-74
2021/11/10 09:20:27;;;;;;;21.80;17.80;;;;;;;16.33;55.70;101885.21;86034;1310;94651;-73
2021/11/10 09:22:40;;;;;;;20.20;17.30;;;;;;;16.52;57.06;101882.55;85985;1314;79064;-74
2021/11/10 09:24:53;;;;;;;19.00;16.70;;;;;;;16.81;56.69;101885.54;85964;1313;82366;-68
2021/11/10 09:27:12;;;;;;;21.00;17.50;;;;;;;17.04;55.24;101881.48;86021;1316;97884;-68
2021/11/10 09:29:24;;;;;;;18.40;16.20;;;;;;;16.43;54.42;101880.66;86044;1313;88501;-67
2021/11/10 09:31:35;;;;;;;22.20;17.20;;;;;;;16.32;54.50;101874.65;86027;1316;92631;-68
2021/11/10 09:33:47;;;;;;;22.50;17.40;;;;;;;16.56;55.55;101873.23;86001;1317;80961;-73
2021/11/10 09:35:57;;;;;;;21.20;17.50;;;;;;;16.55;54.16;101868.41;86005;1314;83077;-74
2021/11/10 09:38:08;;;;;;;20.20;17.30;;;;;;;16.45;54.65;101865.77;86032;1313;99094;-73
2021/11/10 09:40:23;;;;;;;18.90;16.10;;;;;;;16.33;52.78;101858.97;85962;1313;88996;-74
2021/11/10 09:42:34;;;;;;;18.00;15.50;;;;;;;16.43;53.72;101857.47;85947;1317;94639;-73
2021/11/10 09:44:44;;;;;;;19.00;16.70;;;;;;;16.25;53.04;101856.69;86063;1313;78672;-72
2021/11/10 09:47:00;;;;;;;17.40;15.50;;;;;;;16.29;53.90;101851.71;86017;1310;82668;-75
2021/11/10 09:49:12;;;;;;;20.30;15.70;;;;;;;16.39;53.19;101848.81;86000;1316;99350;-73
2021/11/10 09:51:25;;;;;;;18.50;15.00;;;;;;;16.20;52.76;101849.63;86051;1316;86986;-74
2021/11/10 09:53:36;;;;;;;17.70;15.70;;;;;;;16.09;53.12;101843.56;85977;1314;95757;-73
2021/11/10 09:55:49;;;;;;;16.90;14.80;;;;;;;16.00;52.95;101843.04;86009;1313;80800;-74
2021/11/10 09:58:02;;;;;;;16.20;14.50;;;;;;;16.10;53.48;101842.54;85995;1312;82268;-68
2021/11/10 10:00:20;;;;;;;16.80;14.60;;;;;;;16.27;53.38;101835.62;85999;1313;97915;-69
2021/11/10 10:02:32;;;;;;;16.40;14.30;;;;;;;16.22;53.46;101825.33;86015;1310;88756;-74
2021/11/10 10:04:44;;;;;;;17.80;14.50;;;;;;;15.89;53.47;101827.91;85994;1316;96106;-72
2021/11/10 10:06:57;;;;;;;18.70;15.80;;;;;;;15.36;53.44;101825.48;85927;1313;80853;-73
2021/11/10 10:09:09;;;;;;;17.20;14.40;;;;;;;14.61;53.40;101820.92;86006;1316;83220;-68
2021/11/10 10:11:22;;;;;;;18.90;15.20;;;;;;;13.97;54.47;101830.10;85994;1317;97641;-68
2021/11/10 10:13:31;;;;;;;19.90;15.60;;;;;;;13.39;55.19;101829.90;86008;1312;85618;-75
2021/11/10 10:15:45;;;;;;;17.10;15.10;;;;;;;12.93;55.73;101829.66;85998;1313;94916;-74
2021/11/10 10:18:00;;;;;;;16.30;14.30;;;;;;;12.70;56.13;101824.36;85984;1311;79373;-69
2021/11/10 10:20:27;;;;;;;18.80;15.10;;;;;;;12.45;56.93;101829.27;86048;1313;83448;-71
2021/11/10 10:22:36;;;;;;;20.30;15.20;;;;;;;12.07;57.34;101831.61;86015;1313;98335;-74
2021/11/10 10:24:54;;;;;;;19.00;15.40;;;;;;;11.90;57.79;101824.61;86009;1313;89005;-75
2021/11/10 10:27:25;;;;;;;18.50;14.60;;;;;;;11.73;58.17;101821.38;85946;1315;95451;-70
2021/11/10 10:29:38;;;;;;;20.30;14.60;;;;;;;11.48;58.33;101818.63;86009;1317;80574;-73
2021/11/10 10:31:50;;;;;;;17.80;14.50;;;;;;;11.31;58.75;101815.67;86044;1316;82843;-75
2021/11/10 10:37:01;;;;;;;20.00;15.40;;;;;;;11.00;59.50;101814.20;86003;1311;86255;-69
2021/11/10 10:39:31;;;;;;;18.50;14.30;;;;;;;10.83;60.09;101806.23;86001;1316;93430;-69
2021/11/10 10:41:57;;;;;;;16.90;13.40;;;;;;;10.70;60.56;101808.15;86010;1311;78288;-69
2021/11/10 10:44:17;;;;;;;22.30;14.90;;;;;;;10.63;61.07;101813.19;86002;1313;81371;-69
2021/11/10 10:46:32;;;;;;;20.70;15.60;;;;;;;10.59;61.11;101812.51;86007;1313;97645;-68
2021/11/10 10:48:45;;;;;;;19.90;15.30;;;;;;;10.52;61.23;101808.42;86036;1314;88744;-75
2021/11/10 10:50:57;;;;;;;18.70;14.30;;;;;;;10.45;61.51;101810.36;86032;1316;95150;-76